Time;durP1;ratioP1;P1;durP2;ratioP2;P2;SDS_P1;SDS_P2;PMS_P1;PMS_P2;Temp;Humidity;BMP_temperature;BMP_pressure;BME280_temperature;BME280_humidity;BME280_pressure;Samples;Min_cycle;Max_cycle;Signal;HPM_P1;HPM_P2
2023/06/07 00:01:43;;;;;;;2.60;2.40;;;23.60;69.00;;;;;;5094713;28;20934;-84
2023/06/07 00:04:12;;;;;;;2.23;2.03;;;23.50;68.90;;;;;;5094883;28;20462;-84
2023/06/07 00:06:43;;;;;;;2.00;1.90;;;23.50;68.80;;;;;;5095089;28;20440;-84
2023/06/07 00:09:10;;;;;;;2.27;2.07;;;23.50;68.90;;;;;;5094925;28;20482;-86
2023/06/07 00:11:37;;;;;;;2.10;2.00;;;23.40;68.80;;;;;;5094628;28;20444;-85
2023/06/07 00:14:06;;;;;;;2.53;2.33;;;23.50;68.80;;;;;;5094370;28;20438;-85
2023/06/07 00:16:33;;;;;;;2.30;2.10;;;23.50;68.90;;;;;;5094762;28;20523;-85
2023/06/07 00:19:01;;;;;;;2.27;2.17;;;23.40;68.70;;;;;;5094598;28;20784;-84
2023/06/07 00:21:30;;;;;;;2.00;1.90;;;23.50;68.90;;;;;;5094638;28;20480;-84
2023/06/07 00:23:56;;;;;;;2.27;1.83;;;23.40;68.70;;;;;;5094624;28;20437;-84
2023/06/07 00:26:23;;;;;;;2.37;2.17;;;23.50;68.80;;;;;;5094334;28;20450;-84
2023/06/07 00:28:51;;;;;;;2.10;2.00;;;23.40;68.70;;;;;;5094460;28;20433;-83
2023/06/07 00:31:19;;;;;;;2.30;2.10;;;23.40;68.70;;;;;;5094677;28;20437;-84
2023/06/07 00:33:46;;;;;;;2.33;2.07;;;23.40;68.70;;;;;;5094294;28;20437;-84
2023/06/07 00:36:13;;;;;;;2.20;2.00;;;23.40;68.70;;;;;;5074446;28;20656;-85
2023/06/07 00:38:40;;;;;;;2.47;2.27;;;23.40;68.80;;;;;;5084898;28;20433;-84
2023/06/07 00:41:06;;;;;;;2.33;2.13;;;23.40;68.70;;;;;;5094307;28;20927;-83
2023/06/07 00:43:33;;;;;;;2.63;2.43;;;23.40;68.60;;;;;;5094246;28;20442;-84
2023/06/07 00:46:00;;;;;;;2.13;1.80;;;23.40;68.60;;;;;;5093805;28;20438;-84
2023/06/07 00:48:28;;;;;;;2.00;1.90;;;23.40;68.60;;;;;;5094246;28;20433;-84
2023/06/07 00:50:55;;;;;;;2.30;2.10;;;23.40;68.50;;;;;;5093885;28;20485;-83
2023/06/07 00:53:23;;;;;;;2.00;1.90;;;23.50;68.70;;;;;;5093879;28;20452;-83
2023/06/07 00:55:50;;;;;;;2.33;2.13;;;23.40;68.50;;;;;;5093942;28;20494;-84
2023/06/07 00:58:17;;;;;;;2.40;2.20;;;23.50;68.50;;;;;;5094001;28;20524;-85
2023/06/07 01:00:44;;;;;;;1.70;1.60;;;23.50;68.60;;;;;;5093404;28;20484;-85
2023/06/07 01:03:11;;;;;;;1.80;1.70;;;23.40;68.50;;;;;;5094257;28;20441;-86
2023/06/07 01:05:39;;;;;;;2.17;1.90;;;23.40;68.30;;;;;;5094817;28;20437;-85
2023/06/07 01:08:06;;;;;;;1.50;1.40;;;23.40;68.40;;;;;;5094008;28;20430;-85
2023/06/07 01:10:33;;;;;;;2.33;2.13;;;23.50;68.50;;;;;;5093958;28;20441;-85
2023/06/07 01:13:03;;;;;;;2.07;1.90;;;23.50;68.50;;;;;;5093672;28;20432;-85
2023/06/07 01:15:30;;;;;;;2.50;2.30;;;23.40;68.40;;;;;;5093251;28;20498;-84
2023/06/07 01:17:58;;;;;;;2.43;2.00;;;23.40;68.40;;;;;;5093434;28;20467;-84
2023/06/07 01:20:27;;;;;;;2.10;2.00;;;23.40;68.50;;;;;;5093866;28;20476;-84
2023/06/07 01:22:58;;;;;;;2.30;2.10;;;23.40;68.60;;;;;;5093659;28;20482;-83
2023/06/07 01:25:27;;;;;;;1.80;1.70;;;23.40;68.50;;;;;;5093552;28;20553;-84
2023/06/07 01:27:56;;;;;;;2.53;2.33;;;23.40;68.50;;;;;;5093199;28;20431;-83
2023/06/07 01:30:24;;;;;;;2.20;2.03;;;23.40;68.50;;;;;;5094030;28;20436;-84
2023/06/07 01:32:52;;;;;;;2.07;1.90;;;23.40;68.40;;;;;;5093697;28;20809;-85
2023/06/07 01:35:23;;;;;;;2.00;1.90;;;23.40;68.40;;;;;;5093551;28;20801;-84
2023/06/07 01:37:50;;;;;;;2.27;2.00;;;23.40;68.40;;;;;;5092945;28;20443;-85
2023/06/07 01:40:18;;;;;;;1.80;1.70;;;23.40;68.40;;;;;;5093507;28;20506;-83
2023/06/07 01:42:47;;;;;;;5.00;1.87;;;23.40;68.50;;;;;;5093033;28;20442;-84
2023/06/07 01:45:14;;;;;;;1.73;1.63;;;23.60;68.70;;;;;;5093390;28;20447;-83
2023/06/07 01:47:42;;;;;;;1.70;1.60;;;23.40;68.40;;;;;;5093100;28;20467;-83
2023/06/07 01:50:09;;;;;;;1.90;1.80;;;23.40;68.40;;;;;;5092896;28;20475;-84
2023/06/07 01:52:36;;;;;;;1.80;1.60;;;23.40;68.40;;;;;;5093239;28;20481;-84
2023/06/07 01:55:05;;;;;;;2.40;2.20;;;23.40;68.40;;;;;;5093706;28;20441;-83
2023/06/07 01:57:43;;;;;;;2.57;2.37;;;23.40;68.40;;;;;;5096443;28;20479;-84
2023/06/07 02:00:18;;;;;;;2.43;2.23;;;23.40;68.40;;;;;;5097369;28;20468;-83
2023/06/07 02:02:50;;;;;;;4.63;1.83;;;23.40;68.50;;;;;;5097924;28;20443;-84
2023/06/07 02:05:19;;;;;;;1.70;1.60;;;23.40;69.30;;;;;;5097249;28;20857;-84
2023/06/07 02:07:50;;;;;;;1.70;1.60;;;23.40;68.40;;;;;;5096829;28;20839;-84
2023/06/07 02:10:21;;;;;;;1.80;1.70;;;23.40;68.60;;;;;;5097476;28;20463;-84
2023/06/07 02:12:50;;;;;;;1.87;1.77;;;23.40;68.50;;;;;;5097541;28;20443;-84
2023/06/07 02:15:19;;;;;;;2.40;2.20;;;23.40;68.50;;;;;;5097134;28;20436;-84
2023/06/07 02:17:51;;;;;;;1.93;1.83;;;23.40;68.60;;;;;;5096881;28;20452;-84
2023/06/07 02:20:21;;;;;;;2.43;1.53;;;23.40;68.50;;;;;;5097330;28;20475;-84
2023/06/07 02:22:47;;;;;;;2.17;2.07;;;23.40;68.60;;;;;;5097205;28;20467;-84
2023/06/07 02:25:14;;;;;;;2.30;2.10;;;23.40;68.60;;;;;;5097181;28;20444;-84
2023/06/07 02:27:41;;;;;;;1.90;1.80;;;23.40;68.70;;;;;;5097117;28;20526;-84
2023/06/07 02:30:09;;;;;;;2.23;2.03;;;23.40;68.80;;;;;;5096860;28;20930;-84
2023/06/07 02:32:38;;;;;;;1.77;1.67;;;23.40;68.70;;;;;;5096814;28;20777;-84
2023/06/07 02:35:07;;;;;;;2.60;2.40;;;23.40;68.60;;;;;;5096491;28;20444;-83
2023/06/07 02:37:33;;;;;;;2.00;1.90;;;23.40;68.60;;;;;;5096398;28;20443;-84
2023/06/07 02:40:00;;;;;;;2.10;2.00;;;23.40;68.70;;;;;;5096863;28;20440;-83
2023/06/07 02:42:27;;;;;;;2.00;1.90;;;23.40;68.60;;;;;;5081612;28;20444;-84
2023/06/07 02:44:54;;;;;;;2.27;2.07;;;23.30;68.40;;;;;;5096382;28;20439;-84
2023/06/07 02:47:21;;;;;;;2.27;2.17;;;23.40;68.60;;;;;;5096055;28;21011;-84
2023/06/07 02:49:49;;;;;;;1.83;1.73;;;23.40;68.70;;;;;;5096360;28;20468;-83
2023/06/07 02:52:16;;;;;;;2.10;2.00;;;23.40;68.70;;;;;;5096279;28;20856;-84
2023/06/07 02:54:43;;;;;;;2.00;1.90;;;23.40;68.70;;;;;;5096285;28;20437;-83
2023/06/07 02:57:09;;;;;;;2.00;1.80;;;23.40;68.80;;;;;;5096084;28;20445;-83
2023/06/07 02:59:39;;;;;;;1.80;1.70;;;23.40;68.80;;;;;;5096239;28;20864;-84
2023/06/07 03:02:06;;;;;;;2.27;2.07;;;23.40;68.70;;;;;;5095941;28;20491;-84
2023/06/07 03:04:33;;;;;;;1.90;1.63;;;23.30;68.60;;;;;;5096008;28;20476;-83
2023/06/07 03:07:02;;;;;;;1.60;1.50;;;23.40;68.80;;;;;;5095834;28;20801;-83
2023/06/07 03:09:28;;;;;;;2.27;2.07;;;23.40;68.70;;;;;;5096026;28;20444;-84
2023/06/07 03:11:55;;;;;;;2.07;1.87;;;23.30;68.50;;;;;;5096001;28;20445;-84
2023/06/07 03:14:23;;;;;;;2.20;2.00;;;23.30;68.60;;;;;;5095716;28;20436;-84
2023/06/07 03:16:50;;;;;;;2.07;1.97;;;23.50;69.00;;;;;;5096030;28;20601;-84
2023/06/07 03:19:17;;;;;;;2.57;1.93;;;23.40;68.80;;;;;;5095570;28;20446;-83
2023/06/07 03:21:44;;;;;;;2.00;1.90;;;23.30;68.70;;;;;;5095755;28;20478;-84
2023/06/07 03:24:12;;;;;;;2.00;1.90;;;23.30;68.70;;;;;;5095987;28;20505;-83
2023/06/07 03:26:39;;;;;;;1.90;1.80;;;23.40;68.90;;;;;;5095803;28;20831;-85
2023/06/07 03:29:06;;;;;;;2.10;1.90;;;23.30;68.70;;;;;;5095748;28;20938;-83
2023/06/07 03:31:33;;;;;;;1.80;1.60;;;23.30;68.70;;;;;;5095921;28;20531;-84
2023/06/07 03:34:00;;;;;;;1.90;1.80;;;23.30;68.60;;;;;;5095564;28;20448;-83
2023/06/07 03:36:28;;;;;;;2.00;1.90;;;23.30;68.70;;;;;;5095085;28;20432;-83
2023/06/07 03:38:55;;;;;;;2.07;1.97;;;23.30;68.80;;;;;;5095482;28;20449;-83
2023/06/07 03:41:25;;;;;;;1.70;1.60;;;23.30;68.70;;;;;;5094916;28;20472;-84
2023/06/07 03:43:52;;;;;;;2.13;2.00;;;23.30;68.60;;;;;;5095438;28;20445;-84
2023/06/07 03:46:18;;;;;;;1.73;1.63;;;23.30;68.70;;;;;;5095398;28;20786;-83
2023/06/07 03:48:45;;;;;;;1.80;1.70;;;23.30;69.10;;;;;;5095020;28;20796;-84
2023/06/07 03:51:12;;;;;;;2.60;2.40;;;23.30;69.40;;;;;;5094724;28;20470;-84
2023/06/07 03:53:39;;;;;;;2.03;1.93;;;23.30;69.50;;;;;;5094774;28;20434;-85
2023/06/07 03:56:06;;;;;;;2.03;1.93;;;23.30;69.50;;;;;;5095237;28;20883;-83
2023/06/07 03:58:35;;;;;;;2.10;2.00;;;23.30;69.40;;;;;;5095028;28;20437;-84
2023/06/07 04:01:02;;;;;;;1.50;1.40;;;23.30;69.60;;;;;;5094607;28;20522;-83
2023/06/07 04:03:30;;;;;;;1.73;1.63;;;23.30;69.50;;;;;;5095046;28;20526;-83
2023/06/07 04:05:57;;;;;;;1.87;1.77;;;23.30;69.60;;;;;;5094809;28;20439;-83
2023/06/07 04:08:24;;;;;;;1.97;1.87;;;23.30;69.60;;;;;;5094693;28;20773;-83
2023/06/07 04:10:52;;;;;;;1.87;1.77;;;23.30;69.80;;;;;;5095038;28;20539;-84
2023/06/07 04:13:19;;;;;;;1.90;1.70;;;23.30;69.80;;;;;;5094966;28;20773;-83
2023/06/07 04:15:47;;;;;;;1.53;1.43;;;23.30;69.90;;;;;;5094693;28;20441;-83
2023/06/07 04:18:14;;;;;;;2.10;1.97;;;23.30;69.90;;;;;;5095022;28;20760;-84
2023/06/07 04:20:41;;;;;;;2.20;2.00;;;23.30;69.80;;;;;;5094281;28;20443;-83
2023/06/07 04:23:08;;;;;;;2.10;2.00;;;23.30;69.90;;;;;;5094507;28;20449;-84
2023/06/07 04:25:34;;;;;;;1.93;1.83;;;23.30;70.00;;;;;;5094550;28;20450;-83
2023/06/07 04:28:01;;;;;;;1.93;1.57;;;23.30;69.80;;;;;;5094490;28;20811;-84
2023/06/07 04:30:34;;;;;;;2.20;2.00;;;23.30;69.90;;;;;;5094539;28;20537;-83
2023/06/07 04:33:08;;;;;;;1.60;1.50;;;23.30;69.80;;;;;;5074021;28;20441;-83
2023/06/07 04:35:35;;;;;;;2.20;1.87;;;23.30;69.90;;;;;;5074131;28;20479;-82
2023/06/07 04:38:02;;;;;;;1.50;1.40;;;23.40;70.00;;;;;;5094131;28;20458;-84
2023/06/07 04:40:29;;;;;;;1.70;1.60;;;23.30;70.00;;;;;;5094453;28;20472;-84
2023/06/07 04:43:04;;;;;;;2.00;1.90;;;23.30;70.10;;;;;;5094135;28;20979;-85
2023/06/07 04:45:32;;;;;;;1.70;1.60;;;23.30;70.40;;;;;;5094243;28;20439;-83
2023/06/07 04:48:00;;;;;;;1.80;1.70;;;23.30;70.10;;;;;;5094170;28;20514;-84
2023/06/07 04:50:29;;;;;;;1.80;1.70;;;23.30;70.20;;;;;;5093761;28;20503;-84
2023/06/07 04:53:00;;;;;;;2.07;1.90;;;23.30;70.30;;;;;;5093958;28;20459;-84
2023/06/07 04:55:29;;;;;;;1.80;1.60;;;23.30;70.10;;;;;;5093818;28;20441;-84
2023/06/07 04:57:56;;;;;;;1.60;1.50;;;23.30;70.20;;;;;;5093704;28;20447;-83
2023/06/07 05:00:24;;;;;;;2.00;1.90;;;23.30;70.20;;;;;;5093839;28;20444;-83
2023/06/07 05:02:52;;;;;;;1.83;1.73;;;23.30;70.40;;;;;;5073754;28;20562;-84
2023/06/07 05:05:19;;;;;;;1.90;1.80;;;23.30;70.30;;;;;;5086858;28;20539;-84
2023/06/07 05:07:49;;;;;;;2.00;1.90;;;23.30;71.30;;;;;;5093726;28;20449;-84
2023/06/07 05:10:17;;;;;;;1.90;1.80;;;23.30;70.30;;;;;;5093915;28;20452;-84
2023/06/07 05:12:43;;;;;;;1.70;1.60;;;23.30;70.30;;;;;;5093782;28;20452;-85
2023/06/07 05:15:11;;;;;;;1.40;1.30;;;23.40;70.30;;;;;;5093624;28;20441;-84
2023/06/07 05:17:38;;;;;;;1.93;1.73;;;23.30;70.40;;;;;;5093255;28;20463;-84
2023/06/07 05:20:10;;;;;;;2.20;2.00;;;23.30;71.30;;;;;;5093725;28;20439;-84
2023/06/07 05:22:38;;;;;;;1.67;1.57;;;23.30;70.30;;;;;;5093677;28;20476;-83
2023/06/07 05:25:08;;;;;;;2.00;1.80;;;23.30;70.40;;;;;;5093400;28;20436;-83
2023/06/07 05:27:36;;;;;;;1.73;1.63;;;23.30;70.50;;;;;;5093594;28;20820;-84
2023/06/07 05:30:04;;;;;;;1.70;1.60;;;23.30;70.40;;;;;;5093798;28;20462;-84
2023/06/07 05:32:31;;;;;;;1.70;1.60;;;23.30;70.50;;;;;;5092814;28;20451;-84
2023/06/07 05:34:59;;;;;;;1.90;1.80;;;23.30;70.40;;;;;;5093256;28;20432;-83
2023/06/07 05:37:28;;;;;;;1.87;1.77;;;23.30;70.30;;;;;;5093006;28;20806;-83
2023/06/07 05:39:55;;;;;;;1.97;1.87;;;23.30;70.50;;;;;;5093199;28;20950;-84
2023/06/07 05:42:23;;;;;;;2.00;1.80;;;23.30;70.40;;;;;;5092925;28;20467;-83
2023/06/07 05:44:51;;;;;;;2.00;1.90;;;23.30;70.30;;;;;;5093162;28;20956;-84
2023/06/07 05:47:20;;;;;;;1.97;1.87;;;23.40;70.50;;;;;;5093095;28;20465;-84
2023/06/07 05:49:47;;;;;;;1.50;1.40;;;23.30;70.30;;;;;;5093356;28;20799;-84
2023/06/07 05:52:14;;;;;;;1.40;1.30;;;23.30;70.40;;;;;;5093568;28;20447;-84
2023/06/07 05:54:48;;;;;;;1.70;1.60;;;23.30;70.40;;;;;;5093633;28;20796;-84
2023/06/07 05:57:15;;;;;;;2.60;1.93;;;23.30;70.40;;;;;;5091362;28;20445;-84
2023/06/07 05:59:43;;;;;;;1.80;1.70;;;23.30;70.40;;;;;;5093659;28;20799;-84
2023/06/07 06:02:10;;;;;;;2.20;2.03;;;23.30;70.40;;;;;;5093174;28;20477;-85
2023/06/07 06:04:37;;;;;;;1.80;1.70;;;23.30;70.40;;;;;;5093429;28;20439;-85
2023/06/07 06:07:03;;;;;;;2.00;1.90;;;23.30;71.20;;;;;;5092950;28;20441;-84
2023/06/07 06:09:30;;;;;;;1.77;1.67;;;23.30;70.40;;;;;;5093273;28;20444;-83
2023/06/07 06:11:59;;;;;;;1.97;1.87;;;23.40;70.70;;;;;;5093273;28;20440;-83
2023/06/07 06:14:26;;;;;;;2.00;1.80;;;23.30;70.40;;;;;;5093157;28;20459;-84
2023/06/07 06:16:54;;;;;;;3.73;2.17;;;23.30;70.20;;;;;;5092907;28;20462;-84
2023/06/07 06:19:21;;;;;;;2.20;2.00;;;23.30;70.30;;;;;;5093210;28;20442;-84
2023/06/07 06:21:47;;;;;;;1.87;1.77;;;23.30;70.20;;;;;;5092841;28;20527;-84
2023/06/07 06:24:14;;;;;;;2.13;1.97;;;23.30;70.30;;;;;;5093158;28;20792;-84
2023/06/07 06:26:41;;;;;;;1.80;1.70;;;23.30;70.20;;;;;;5078100;28;20455;-84
2023/06/07 06:29:10;;;;;;;2.00;1.90;;;23.30;70.40;;;;;;5092655;28;20442;-87
2023/06/07 06:31:38;;;;;;;2.37;1.90;;;23.30;70.30;;;;;;5093277;28;20520;-85
2023/06/07 06:34:07;;;;;;;4.90;3.80;;;23.30;71.20;;;;;;5092883;28;20458;-85
2023/06/07 06:36:34;;;;;;;6.90;5.03;;;23.30;72.20;;;;;;5093039;28;20514;-86
2023/06/07 07:29:15;;;;;;;5.30;4.17;;;22.50;77.10;;;;;;5052366;28;20511;-83
2023/06/07 07:31:44;;;;;;;7.13;4.43;;;22.50;76.60;;;;;;5052439;28;20929;-84
2023/06/07 07:34:11;;;;;;;10.30;3.90;;;22.60;76.30;;;;;;5055677;28;20438;-84
2023/06/07 07:36:39;;;;;;;5.67;3.40;;;22.60;75.60;;;;;;5055250;28;20929;-86
2023/06/07 07:39:05;;;;;;;3.40;3.10;;;22.60;74.90;;;;;;5055608;28;20460;-85
2023/06/07 07:41:35;;;;;;;3.90;3.10;;;22.70;74.60;;;;;;5055524;28;20533;-84
2023/06/07 07:44:03;;;;;;;10.43;3.63;;;22.70;74.40;;;;;;5055323;28;20507;-87
2023/06/07 07:46:31;;;;;;;6.93;3.47;;;22.80;74.30;;;;;;5054573;28;20470;-84
2023/06/07 07:48:58;;;;;;;11.83;4.73;;;22.80;74.30;;;;;;5054891;28;20453;-84
2023/06/07 07:51:25;;;;;;;6.30;5.43;;;22.80;76.40;;;;;;5054276;28;20452;-85
2023/06/07 07:53:52;;;;;;;12.50;5.27;;;22.90;77.00;;;;;;5033819;28;20497;-84
2023/06/07 07:56:20;;;;;;;8.03;3.80;;;22.80;77.20;;;;;;5041179;28;20487;-83
2023/06/07 07:58:46;;;;;;;4.30;3.90;;;22.80;76.90;;;;;;5053721;28;20488;-83
2023/06/07 08:01:15;;;;;;;4.77;3.80;;;22.80;76.20;;;;;;5053354;28;20536;-84
2023/06/07 08:03:46;;;;;;;3.83;3.27;;;22.80;75.50;;;;;;5051279;28;21115;-85
2023/06/07 08:06:13;;;;;;;3.83;2.63;;;22.80;75.00;;;;;;5049606;28;20553;-85
2023/06/07 08:08:40;;;;;;;4.10;3.07;;;22.80;75.50;;;;;;5052496;28;20454;-84
2023/06/07 08:11:07;;;;;;;3.33;3.10;;;22.80;74.40;;;;;;5053869;28;21025;-86
2023/06/07 08:13:35;;;;;;;2.93;2.67;;;22.90;74.70;;;;;;5053811;28;20821;-85
2023/06/07 08:16:02;;;;;;;5.10;3.40;;;22.90;74.50;;;;;;5054223;28;20488;-88
2023/06/07 08:18:31;;;;;;;6.83;3.00;;;22.90;74.30;;;;;;5054717;28;20444;-88
2023/06/07 08:21:00;;;;;;;7.03;4.10;;;22.90;74.30;;;;;;5056011;28;20524;-84
2023/06/07 08:23:27;;;;;;;5.27;2.90;;;23.00;75.70;;;;;;5056258;28;21082;-83
2023/06/07 08:25:54;;;;;;;6.00;3.60;;;23.00;74.90;;;;;;5055321;28;20496;-87
2023/06/07 08:28:21;;;;;;;6.83;4.73;;;23.00;74.60;;;;;;5054790;28;20486;-84
2023/06/07 08:30:48;;;;;;;10.27;5.37;;;23.00;77.10;;;;;;5079880;28;20472;-85
2023/06/07 08:33:15;;;;;;;8.73;4.70;;;23.00;78.00;;;;;;5095096;28;20454;-85
2023/06/07 08:35:42;;;;;;;8.80;4.13;;;23.00;77.80;;;;;;5093951;28;20440;-85
2023/06/07 08:38:11;;;;;;;5.87;4.03;;;22.90;76.90;;;;;;5094731;28;20458;-85
2023/06/07 08:40:38;;;;;;;5.33;4.13;;;23.00;76.60;;;;;;5094762;28;20443;-83
2023/06/07 08:43:05;;;;;;;4.13;2.90;;;23.00;75.80;;;;;;5095906;28;20482;-83
2023/06/07 08:45:33;;;;;;;7.13;3.47;;;23.00;75.30;;;;;;5094838;28;20447;-84
2023/06/07 08:48:06;;;;;;;6.03;2.70;;;23.00;74.80;;;;;;5095396;28;20440;-83
2023/06/07 08:50:34;;;;;;;4.40;3.03;;;23.00;74.30;;;;;;5095356;28;20431;-84
2023/06/07 08:53:06;;;;;;;7.00;2.97;;;23.10;73.90;;;;;;5095095;28;20970;-83
2023/06/07 08:55:36;;;;;;;3.70;3.30;;;23.10;73.80;;;;;;5094845;28;20489;-84
2023/06/07 08:58:04;;;;;;;10.20;3.17;;;23.10;73.50;;;;;;5094021;28;20443;-85
2023/06/07 09:00:31;;;;;;;4.57;3.30;;;23.10;73.40;;;;;;5095325;28;20518;-87
2023/06/07 09:02:58;;;;;;;3.90;2.90;;;23.10;73.20;;;;;;5095734;28;20485;-84
2023/06/07 09:05:25;;;;;;;3.90;3.50;;;23.10;73.80;;;;;;5095151;28;20441;-84
2023/06/07 09:07:53;;;;;;;5.30;3.17;;;23.10;73.90;;;;;;5095729;28;20452;-84
2023/06/07 09:10:21;;;;;;;4.60;3.33;;;23.20;74.10;;;;;;5095662;28;20475;-85
2023/06/07 09:12:49;;;;;;;3.87;3.20;;;22.90;73.50;;;;;;5094169;28;20445;-85
2023/06/07 09:15:18;;;;;;;5.03;3.17;;;23.20;74.60;;;;;;5093970;28;20446;-85
2023/06/07 09:17:56;;;;;;;4.53;3.20;;;23.20;74.40;;;;;;5093879;28;20447;-84
2023/06/07 09:20:24;;;;;;;3.87;3.47;;;23.20;73.80;;;;;;5093913;28;20435;-84
2023/06/07 09:23:01;;;;;;;6.27;2.87;;;23.10;74.50;;;;;;5093136;28;20486;-90
2023/06/07 09:25:28;;;;;;;5.50;3.67;;;23.20;74.50;;;;;;5093730;28;20436;-86
2023/06/07 09:27:57;;;;;;;3.73;2.80;;;23.20;74.10;;;;;;5093473;28;20439;-87
2023/06/07 09:30:25;;;;;;;2.70;2.50;;;23.20;74.10;;;;;;5093165;28;20468;-87
2023/06/07 09:32:53;;;;;;;4.00;3.30;;;23.20;74.30;;;;;;5093453;28;20507;-87
2023/06/07 09:35:21;;;;;;;2.87;2.67;;;23.30;74.70;;;;;;5093217;28;20525;-86
2023/06/07 09:37:50;;;;;;;3.70;3.10;;;23.20;74.20;;;;;;5093568;28;20456;-87
2023/06/07 09:40:18;;;;;;;3.10;2.90;;;23.20;74.80;;;;;;5093524;28;20439;-86
2023/06/07 09:42:45;;;;;;;3.53;3.10;;;23.20;73.70;;;;;;5093329;28;21025;-87
2023/06/07 09:45:15;;;;;;;4.60;3.20;;;23.20;73.30;;;;;;5093173;28;20450;-87
2023/06/07 09:47:43;;;;;;;3.13;2.83;;;23.20;73.20;;;;;;5093392;28;20793;-87
2023/06/07 09:50:11;;;;;;;5.40;2.67;;;23.30;73.50;;;;;;5093495;28;20801;-86
2023/06/07 09:52:38;;;;;;;3.73;3.33;;;23.20;73.60;;;;;;5093451;28;20445;-87
2023/06/07 09:55:07;;;;;;;4.83;2.70;;;23.20;74.00;;;;;;5093108;28;20448;-87
2023/06/07 09:57:36;;;;;;;2.97;2.67;;;23.20;74.20;;;;;;5092882;28;20446;-88
2023/06/07 10:00:13;;;;;;;8.33;3.07;;;23.20;74.20;;;;;;5093744;28;20470;-92
2023/06/07 10:02:42;;;;;;;2.87;2.30;;;23.20;74.20;;;;;;5093155;28;20479;-86
2023/06/07 10:05:09;;;;;;;6.80;3.40;;;23.20;74.10;;;;;;5093157;28;20870;-84
2023/06/07 10:07:40;;;;;;;2.93;2.73;;;23.20;74.20;;;;;;5093211;28;20804;-84
2023/06/07 10:10:08;;;;;;;4.90;2.97;;;23.20;74.50;;;;;;5093401;28;20489;-84
2023/06/07 10:12:40;;;;;;;3.57;3.27;;;23.20;74.50;;;;;;5092891;28;20442;-84
2023/06/07 10:15:09;;;;;;;3.90;3.23;;;23.10;74.40;;;;;;5093172;28;20522;-84
2023/06/07 10:17:49;;;;;;;2.63;2.43;;;23.10;74.50;;;;;;5094688;28;20506;-87
2023/06/07 10:20:24;;;;;;;3.20;2.77;;;23.20;74.40;;;;;;5097438;28;20498;-88
2023/06/07 10:22:53;;;;;;;3.77;2.77;;;23.20;74.00;;;;;;5097691;28;20477;-84
2023/06/07 10:25:21;;;;;;;3.77;2.60;;;23.20;73.50;;;;;;5096684;28;20447;-84
2023/06/07 10:27:55;;;;;;;3.20;2.90;;;23.20;74.50;;;;;;5096749;28;21001;-84
2023/06/07 10:30:25;;;;;;;3.77;3.47;;;23.40;74.70;;;;;;5095886;28;20839;-86
2023/06/07 10:32:54;;;;;;;8.77;3.00;;;23.20;74.80;;;;;;5096243;28;20958;-84
2023/06/07 10:35:21;;;;;;;5.23;3.07;;;23.20;75.00;;;;;;5096162;28;20450;-86
2023/06/07 10:37:53;;;;;;;4.60;2.70;;;23.20;75.10;;;;;;5096896;28;20500;-87
2023/06/07 10:40:21;;;;;;;2.93;2.50;;;23.20;74.20;;;;;;5096978;28;20493;-86
2023/06/07 10:42:48;;;;;;;3.27;3.00;;;23.20;73.70;;;;;;5095937;28;20481;-86
2023/06/07 10:45:18;;;;;;;7.33;3.10;;;23.20;73.60;;;;;;5095699;28;20455;-87
2023/06/07 10:47:47;;;;;;;2.37;2.17;;;23.30;73.40;;;;;;5095938;28;21179;-87
2023/06/07 10:50:47;;;;;;;2.73;2.30;;;23.30;73.20;;;;;;5095668;28;22354;-85
2023/06/07 10:53:14;;;;;;;5.37;2.77;;;23.30;73.40;;;;;;5089305;28;20450;-87
2023/06/07 10:55:41;;;;;;;2.77;2.43;;;23.30;74.00;;;;;;5096308;28;20548;-88
2023/06/07 10:58:26;;;;;;;3.90;3.60;;;23.40;73.80;;;;;;5096773;28;20468;-91
2023/06/07 11:00:54;;;;;;;4.87;2.73;;;23.30;74.20;;;;;;5096003;28;20963;-88
2023/06/07 11:03:40;;;;;;;2.70;2.50;;;23.30;74.10;;;;;;5096414;28;20489;-88
2023/06/07 11:06:09;;;;;;;3.60;2.37;;;23.40;74.10;;;;;;5096624;28;20433;-88
2023/06/07 11:08:38;;;;;;;2.63;2.43;;;23.40;74.30;;;;;;5096194;28;20443;-90
2023/06/07 11:11:21;;;;;;;6.73;5.53;;;23.40;74.20;;;;;;5096579;28;20444;-87
2023/06/07 11:14:09;;;;;;;4.30;2.90;;;23.50;77.40;;;;;;5095321;28;20807;-87
2023/06/07 11:16:37;;;;;;;6.10;3.13;;;23.40;76.70;;;;;;5096338;28;20468;-88
2023/06/07 11:19:08;;;;;;;4.00;3.70;;;23.40;75.10;;;;;;5095488;28;20921;-87
2023/06/07 11:22:07;;;;;;;4.30;3.77;;;23.40;75.10;;;;;;5095718;28;20495;-88
2023/06/07 11:24:38;;;;;;;2.97;2.60;;;23.50;75.80;;;;;;5095472;28;20540;-88
2023/06/07 11:27:12;;;;;;;4.80;3.10;;;23.50;75.80;;;;;;5095417;28;20502;-84
2023/06/07 11:29:41;;;;;;;3.10;2.73;;;23.50;75.70;;;;;;5094378;28;20476;-84
2023/06/07 11:32:10;;;;;;;4.17;2.83;;;23.50;76.00;;;;;;5094821;28;20471;-86
2023/06/07 11:34:37;;;;;;;3.53;3.23;;;23.50;75.90;;;;;;5095442;28;20529;-81
2023/06/07 11:37:12;;;;;;;3.50;2.83;;;23.50;76.20;;;;;;5095339;28;20468;-82
2023/06/07 11:39:40;;;;;;;4.23;3.20;;;23.50;76.70;;;;;;5095495;28;20618;-81
2023/06/07 11:42:07;;;;;;;5.20;3.43;;;23.40;76.50;;;;;;5095513;28;20440;-81
2023/06/07 11:44:38;;;;;;;3.87;3.47;;;23.40;76.60;;;;;;5095415;28;20501;-82
2023/06/07 11:47:06;;;;;;;9.03;3.70;;;23.40;76.80;;;;;;5095304;28;20462;-82
2023/06/07 11:49:35;;;;;;;5.47;3.33;;;23.40;76.50;;;;;;5095371;28;20437;-82
2023/06/07 11:52:02;;;;;;;3.43;3.03;;;23.40;76.40;;;;;;5094354;28;20477;-86
2023/06/07 11:54:29;;;;;;;2.40;2.20;;;23.40;76.60;;;;;;5092871;28;20429;-82
2023/06/07 11:56:58;;;;;;;4.17;3.37;;;23.40;76.60;;;;;;5094107;28;20938;-82
2023/06/07 11:59:25;;;;;;;3.27;2.80;;;23.50;76.60;;;;;;5094445;28;20469;-87
2023/06/07 12:01:53;;;;;;;4.70;2.93;;;23.50;76.50;;;;;;5094613;28;20445;-84
2023/06/07 12:04:21;;;;;;;5.13;2.90;;;23.40;76.30;;;;;;5094602;28;20485;-88
2023/06/07 12:06:49;;;;;;;6.70;2.73;;;23.50;75.90;;;;;;5094715;28;20437;-85
2023/06/07 12:09:18;;;;;;;4.33;3.03;;;23.50;76.20;;;;;;5093795;28;20455;-85
2023/06/07 12:11:45;;;;;;;2.77;2.57;;;23.40;76.00;;;;;;5092701;28;20451;-85
2023/06/07 12:14:29;;;;;;;2.97;2.63;;;23.40;76.10;;;;;;5092961;28;20501;-85
2023/06/07 12:16:56;;;;;;;3.23;2.93;;;23.50;76.10;;;;;;5091175;28;20921;-84
2023/06/07 12:19:23;;;;;;;2.90;2.70;;;23.50;76.10;;;;;;5091448;28;20444;-85
2023/06/07 12:21:50;;;;;;;3.47;2.97;;;23.50;76.00;;;;;;5091455;28;20856;-84
2023/06/07 12:24:17;;;;;;;4.00;3.60;;;23.50;75.90;;;;;;5091761;28;21087;-85
2023/06/07 12:26:43;;;;;;;3.30;3.07;;;23.50;76.20;;;;;;5091220;28;20455;-85
2023/06/07 12:29:10;;;;;;;5.30;2.93;;;23.50;76.20;;;;;;5090780;28;20443;-84
2023/06/07 12:31:41;;;;;;;2.53;2.33;;;23.50;76.10;;;;;;5091950;28;20554;-85
2023/06/07 12:34:10;;;;;;;2.90;2.70;;;23.50;76.50;;;;;;5092382;28;20445;-85
2023/06/07 12:36:39;;;;;;;3.93;2.97;;;23.50;76.70;;;;;;5092173;28;20715;-85
2023/06/07 12:39:07;;;;;;;2.97;2.67;;;23.50;76.10;;;;;;5092148;28;20852;-85
2023/06/07 12:41:34;;;;;;;2.67;2.47;;;23.50;76.00;;;;;;5092677;28;20452;-89
2023/06/07 12:44:02;;;;;;;2.87;2.57;;;23.50;75.90;;;;;;5094203;28;20479;-85
2023/06/07 12:46:29;;;;;;;3.43;3.13;;;23.50;76.10;;;;;;5094888;28;20480;-86
2023/06/07 12:48:58;;;;;;;3.80;2.93;;;23.50;76.10;;;;;;5094376;28;20438;-85
2023/06/07 12:51:25;;;;;;;3.57;2.87;;;23.50;76.10;;;;;;5094151;28;20529;-84
2023/06/07 12:53:52;;;;;;;3.10;2.90;;;23.50;76.20;;;;;;5076121;28;20433;-85
2023/06/07 12:56:20;;;;;;;3.00;2.70;;;23.50;76.00;;;;;;5093962;28;20446;-84
2023/06/07 12:58:46;;;;;;;3.60;2.70;;;23.50;75.80;;;;;;5094114;28;20857;-88
2023/06/07 13:01:13;;;;;;;2.93;2.63;;;23.50;76.20;;;;;;5094196;28;20493;-85
2023/06/07 13:03:40;;;;;;;3.30;3.00;;;23.50;76.50;;;;;;5094016;28;20479;-87
2023/06/07 13:06:08;;;;;;;2.60;2.40;;;23.50;76.00;;;;;;5094052;28;20531;-85
2023/06/07 13:08:35;;;;;;;3.10;2.90;;;23.50;75.90;;;;;;5093820;28;20437;-84
2023/06/07 13:11:04;;;;;;;3.10;2.90;;;23.50;76.20;;;;;;5093816;28;20438;-83
2023/06/07 13:13:33;;;;;;;2.83;2.63;;;23.50;76.10;;;;;;5094206;28;20453;-85
2023/06/07 13:16:00;;;;;;;2.90;2.70;;;23.50;76.30;;;;;;5094056;28;20485;-83
2023/06/07 13:18:28;;;;;;;3.00;2.80;;;23.50;76.10;;;;;;5093793;28;20992;-83
2023/06/07 13:20:55;;;;;;;3.40;3.13;;;23.50;76.60;;;;;;5093675;28;20836;-84
2023/06/07 13:23:24;;;;;;;2.73;2.53;;;23.50;76.40;;;;;;5093572;28;20782;-83
2023/06/07 13:25:50;;;;;;;2.97;2.77;;;23.50;76.30;;;;;;5093559;28;20436;-86
2023/06/07 13:28:17;;;;;;;2.53;2.33;;;23.50;76.20;;;;;;5093624;28;20443;-84
2023/06/07 13:30:44;;;;;;;2.87;2.67;;;23.50;76.30;;;;;;5093338;28;20529;-87
2023/06/07 13:33:17;;;;;;;3.07;2.80;;;23.50;76.00;;;;;;5093589;28;20515;-87
2023/06/07 13:35:44;;;;;;;2.87;2.67;;;23.60;76.10;;;;;;5093359;28;20437;-84
2023/06/07 13:38:11;;;;;;;3.53;3.23;;;23.60;76.20;;;;;;5093536;28;20854;-84
2023/06/07 13:40:39;;;;;;;3.40;3.10;;;23.60;76.20;;;;;;5093414;28;20440;-84
2023/06/07 13:43:06;;;;;;;3.13;2.93;;;23.60;76.00;;;;;;5093313;28;20534;-84